Terminal Aerodrome Forecast
Issued by NWS

Home | Current Version | Previous Version | Text Only | Print | Product List | Glossary On
Versions: 1 2 3 4 5 6 7 8 9 10 11 12 13 14 15 16
000
FTUS46 KMTR 271400 AAA
TAFOAK
TAF AMD
KOAK 271447Z 2715/2818 VRB03KT P6SM BKN010
     FM271600 30007KT P6SM FEW010
     FM272000 29015KT P6SM SKC
     FM280400 31006KT P6SM SKC
     FM280900 30005KT P6SM BKN015=

USA.gov is the U.S. government's official web portal to all federal, state and local government web resources and services.